createdAt,value
2022-10-05T00:02:19.414Z,9.73
2022-10-05T00:07:51.197Z,9.71
2022-10-05T00:13:24.762Z,9.68
2022-10-05T00:24:28.332Z,9.57
2022-10-05T00:30:01.908Z,9.53
2022-10-05T00:35:33.703Z,9.50
2022-10-05T00:46:39.277Z,9.53
2022-10-05T00:52:11.083Z,9.57
2022-10-05T00:57:43.014Z,9.55
2022-10-05T01:03:14.461Z,9.54
2022-10-05T01:08:46.441Z,9.55
2022-10-05T01:19:49.997Z,9.65
2022-10-05T01:25:21.726Z,9.70
2022-10-05T01:30:53.674Z,9.77
2022-10-05T01:36:25.361Z,9.77
2022-10-05T01:41:57.243Z,9.80
2022-10-05T01:47:28.855Z,9.78
2022-10-05T01:53:00.492Z,9.71
2022-10-05T01:58:32.546Z,9.71
2022-10-05T02:04:04.506Z,9.67
2022-10-05T02:09:38.483Z,9.67
2022-10-05T02:15:10.322Z,9.63
2022-10-05T02:20:42.260Z,9.61
2022-10-05T02:26:13.994Z,9.61
2022-10-05T02:31:45.739Z,9.60
2022-10-05T02:37:17.222Z,9.51
2022-10-05T02:45:10.471Z,9.46
2022-10-05T02:50:41.937Z,9.42
2022-10-05T02:56:13.707Z,9.42
2022-10-05T03:01:46.092Z,9.36
2022-10-05T03:12:49.268Z,9.33
2022-10-05T03:18:20.783Z,9.26
2022-10-05T03:29:24.050Z,9.16
2022-10-05T03:34:55.902Z,9.11
2022-10-05T03:40:27.644Z,8.99
2022-10-05T03:45:59.579Z,8.94
2022-10-05T03:51:31.236Z,8.87
2022-10-05T03:57:03.140Z,8.77
2022-10-05T04:02:35.396Z,8.72
2022-10-05T04:08:07.090Z,8.65
2022-10-05T04:13:38.874Z,8.60
2022-10-05T04:19:10.644Z,8.54
2022-10-05T04:24:42.524Z,8.50
2022-10-05T04:30:13.955Z,8.44
2022-10-05T04:35:45.451Z,8.43
2022-10-05T04:41:18.736Z,8.39
2022-10-05T04:57:55.510Z,8.36
2022-10-05T05:03:27.312Z,8.36
2022-10-05T05:09:01.205Z,8.36
2022-10-05T05:20:04.768Z,8.43
2022-10-05T05:25:36.444Z,8.46
2022-10-05T05:31:08.280Z,8.49
2022-10-05T05:42:11.616Z,8.67
2022-10-05T05:47:43.377Z,9.05
2022-10-05T05:53:14.555Z,9.43
2022-10-05T05:58:45.839Z,10.77
2022-10-05T06:04:17.527Z,11.47
2022-10-05T06:09:48.784Z,13.47
2022-10-05T06:15:20.198Z,14.41
2022-10-05T06:20:51.501Z,15.84
2022-10-05T06:26:22.838Z,16.61
2022-10-05T06:31:58.588Z,18.14
2022-10-05T06:37:25.782Z,18.51
2022-10-05T06:42:57.405Z,19.48
2022-10-05T06:48:28.987Z,20.13
2022-10-05T06:54:00.728Z,21.55
2022-10-05T06:59:31.829Z,22.23
2022-10-05T07:05:03.263Z,23.44
2022-10-05T07:10:34.712Z,24.03
2022-10-05T07:16:06.002Z,24.58
2022-10-05T07:21:37.610Z,25.44
2022-10-05T07:27:08.990Z,25.78
2022-10-05T07:32:40.386Z,26.52
2022-10-05T07:38:12.297Z,26.86
2022-10-05T07:49:15.705Z,27.69
2022-10-05T07:54:47.007Z,27.92
2022-10-05T08:00:18.390Z,28.15
2022-10-05T08:05:50.117Z,28.22
2022-10-05T08:11:21.506Z,28.24
2022-10-05T08:16:52.847Z,28.08
2022-10-05T08:22:24.088Z,28.09
2022-10-05T08:27:55.496Z,28.37
2022-10-05T08:33:26.810Z,28.63
2022-10-05T08:38:57.950Z,28.79
2022-10-05T08:44:29.555Z,28.74
2022-10-05T08:50:01.175Z,28.22
2022-10-05T08:55:32.521Z,27.75
2022-10-05T09:01:03.924Z,26.82
2022-10-05T09:06:35.049Z,26.41
2022-10-05T09:12:06.728Z,25.65
2022-10-05T09:17:39.454Z,25.31
2022-10-05T09:23:09.703Z,24.83
2022-10-05T09:28:41.416Z,24.71
2022-10-05T09:34:12.851Z,24.48
2022-10-05T09:39:44.214Z,24.39
2022-10-05T09:45:21.057Z,24.25
2022-10-05T09:50:47.236Z,24.23
2022-10-05T09:56:18.599Z,24.25
2022-10-05T10:04:10.817Z,24.33
2022-10-05T10:09:42.105Z,24.50
2022-10-05T10:20:44.951Z,24.74
2022-10-05T10:26:16.207Z,24.78
2022-10-05T10:31:47.766Z,24.78
2022-10-05T10:37:18.765Z,24.90
2022-10-05T10:42:50.357Z,25.02
2022-10-05T10:48:22.207Z,25.10
2022-10-05T10:53:53.922Z,25.13
2022-10-05T10:59:27.978Z,25.24
2022-10-05T11:04:57.184Z,25.31
2022-10-05T11:10:28.939Z,25.58
2022-10-05T11:16:00.856Z,25.71
2022-10-05T11:21:32.349Z,26.06
2022-10-05T11:32:34.947Z,26.47
2022-10-05T11:38:06.111Z,26.55
2022-10-05T11:43:37.383Z,26.68
2022-10-05T11:49:08.991Z,26.74
2022-10-05T11:55:05.971Z,26.84
2022-10-05T12:00:13.737Z,26.88
2022-10-05T12:05:45.058Z,26.95
2022-10-05T12:11:16.339Z,26.92
2022-10-05T12:16:47.634Z,26.91
2022-10-05T12:22:19.006Z,26.89
2022-10-05T12:27:50.276Z,26.82
2022-10-05T12:33:21.868Z,26.77
2022-10-05T12:38:53.423Z,26.77
2022-10-05T12:44:24.659Z,26.75
2022-10-05T12:49:56.016Z,26.77
2022-10-05T12:55:27.223Z,26.79
2022-10-05T13:00:58.815Z,26.91
2022-10-05T13:17:32.953Z,27.05
2022-10-05T13:23:04.286Z,27.13
2022-10-05T13:28:36.010Z,27.17
2022-10-05T13:34:07.351Z,27.29
2022-10-05T13:39:39.060Z,27.27
2022-10-05T13:45:11.195Z,27.29
2022-10-05T13:50:42.929Z,27.30
2022-10-05T13:56:14.668Z,27.40
2022-10-05T14:01:45.929Z,27.39
2022-10-05T14:07:17.418Z,27.31
2022-10-05T14:12:48.564Z,27.27
2022-10-05T14:18:19.984Z,27.22
2022-10-05T14:23:51.310Z,27.16
2022-10-05T14:29:22.539Z,27.09
2022-10-05T14:34:53.790Z,27.05
2022-10-05T14:40:25.072Z,26.96
2022-10-05T14:45:56.503Z,26.89
2022-10-05T14:51:28.330Z,26.71
2022-10-05T14:56:59.793Z,26.60
2022-10-05T15:02:31.496Z,26.36
2022-10-05T15:08:02.833Z,26.26
2022-10-05T15:13:34.365Z,25.96
2022-10-05T15:19:05.839Z,25.86
2022-10-05T15:30:06.829Z,25.40
2022-10-05T15:35:38.021Z,25.05
2022-10-05T15:41:09.422Z,24.89
2022-10-05T15:46:41.108Z,24.57
2022-10-05T15:52:12.709Z,24.41
2022-10-05T16:03:13.490Z,23.96
2022-10-05T16:08:45.053Z,23.65
2022-10-05T16:14:16.739Z,23.50
2022-10-05T16:19:47.965Z,23.13
2022-10-05T16:25:19.325Z,22.99
2022-10-05T16:30:50.958Z,22.59
2022-10-05T16:36:22.585Z,22.41
2022-10-05T16:41:54.294Z,22.03
2022-10-05T16:47:27.528Z,21.85
2022-10-05T16:58:27.026Z,21.33
2022-10-05T17:03:58.738Z,20.99
2022-10-05T17:09:30.154Z,20.80
2022-10-05T17:15:01.383Z,20.51
2022-10-05T17:20:32.775Z,20.35
2022-10-05T17:31:33.710Z,19.93
2022-10-05T17:37:05.064Z,19.66
2022-10-05T17:42:36.350Z,19.51
2022-10-05T17:48:07.730Z,19.24
2022-10-05T17:53:39.116Z,19.13
2022-10-05T18:04:39.973Z,18.64
2022-10-05T18:10:11.258Z,18.40
2022-10-05T18:21:12.197Z,18.17
2022-10-05T18:26:43.900Z,17.96
2022-10-05T18:32:15.279Z,17.86
2022-10-05T18:37:46.665Z,17.67
2022-10-05T18:43:18.477Z,17.57
2022-10-05T18:48:49.961Z,17.40
2022-10-05T18:54:21.904Z,17.33
2022-10-05T18:59:53.615Z,17.16
2022-10-05T19:05:52.328Z,17.07
2022-10-05T19:10:56.527Z,16.92
2022-10-05T19:16:28.042Z,16.82
2022-10-05T19:21:59.083Z,16.64
2022-10-05T19:27:30.597Z,16.57
2022-10-05T19:33:02.309Z,16.44
2022-10-05T19:38:33.808Z,16.37
2022-10-05T19:44:05.397Z,16.27
2022-10-05T19:49:37.140Z,16.19
2022-10-05T19:55:08.520Z,16.13
2022-10-05T20:00:40.247Z,16.06
2022-10-05T20:06:11.939Z,15.93
2022-10-05T20:11:43.265Z,15.90
2022-10-05T20:17:14.600Z,15.84
2022-10-05T20:22:46.004Z,15.79
2022-10-05T20:28:17.592Z,15.71
2022-10-05T20:44:49.178Z,15.54
2022-10-05T20:55:48.858Z,15.48
2022-10-05T21:01:23.410Z,15.43
2022-10-05T21:06:54.830Z,15.39
2022-10-05T21:17:55.551Z,15.30
2022-10-05T21:23:27.065Z,15.20
2022-10-05T21:28:59.713Z,15.14
2022-10-05T21:34:31.069Z,15.10
2022-10-05T21:40:02.325Z,15.07
2022-10-05T21:51:05.409Z,15.07
2022-10-05T21:56:36.744Z,15.09
2022-10-05T22:02:08.493Z,15.13
2022-10-05T22:07:39.772Z,15.13
2022-10-05T22:13:11.116Z,15.12
2022-10-05T22:18:42.488Z,15.09
2022-10-05T22:24:14.178Z,15.05
2022-10-05T22:29:45.439Z,15.05
2022-10-05T22:35:16.957Z,14.95
2022-10-05T22:40:48.618Z,14.91
2022-10-05T22:46:20.022Z,14.85
2022-10-05T22:51:51.164Z,14.81
2022-10-05T22:57:22.528Z,14.75
2022-10-05T23:02:53.973Z,14.68
2022-10-05T23:08:25.992Z,14.61
2022-10-05T23:13:57.557Z,14.57
2022-10-05T23:16:10.035Z,14.51
2022-10-05T23:21:41.526Z,14.44
2022-10-05T23:27:12.956Z,14.41
2022-10-05T23:32:44.399Z,14.37
2022-10-05T23:38:16.536Z,14.27
2022-10-05T23:43:48.054Z,14.23
2022-10-05T23:49:19.674Z,14.13
2022-10-05T23:54:51.545Z,14.08
